createdAt,value
2023-04-16T00:01:22.361Z,96509.75
2023-04-16T00:03:51.955Z,96508.63
2023-04-16T00:06:20.113Z,96498.84
2023-04-16T00:08:48.002Z,96505.03
2023-04-16T00:11:16.151Z,96512.19
2023-04-16T00:13:44.131Z,96504.84
2023-04-16T00:16:12.016Z,96517.03
2023-04-16T00:18:40.129Z,96515.53
2023-04-16T00:21:09.504Z,96521.75
2023-04-16T00:23:37.977Z,96516.41
2023-04-16T00:26:06.067Z,96521.13
2023-04-16T00:28:33.934Z,96517.25
2023-04-16T00:31:02.453Z,96509.28
2023-04-16T00:33:30.927Z,96519.13
2023-04-16T00:35:58.881Z,96520.25
2023-04-16T00:38:30.452Z,96521.00
2023-04-16T00:40:58.800Z,96532.06
2023-04-16T00:43:27.869Z,96516.72
2023-04-16T00:45:58.014Z,96517.03
2023-04-16T00:48:27.863Z,96524.16
2023-04-16T00:50:56.273Z,96521.75
2023-04-16T00:53:24.708Z,96525.72
2023-04-16T00:55:54.655Z,96521.97
2023-04-16T00:58:23.000Z,96515.00
2023-04-16T01:00:51.900Z,96524.47
2023-04-16T01:03:19.876Z,96522.06
2023-04-16T01:05:49.335Z,96523.41
2023-04-16T01:08:18.261Z,96516.59
2023-04-16T01:10:46.481Z,96518.38
2023-04-16T01:13:15.861Z,96526.06
2023-04-16T01:15:43.930Z,96525.63
2023-04-16T01:18:16.161Z,96533.41
2023-04-16T01:20:45.502Z,96527.00
2023-04-16T01:23:13.737Z,96529.09
2023-04-16T01:25:41.691Z,96535.09
2023-04-16T01:28:09.722Z,96525.88
2023-04-16T01:30:37.838Z,96533.22
2023-04-16T01:33:30.751Z,96536.56
2023-04-16T01:36:00.011Z,96538.66
2023-04-16T01:38:27.871Z,96534.06
2023-04-16T01:40:57.788Z,96534.16
2023-04-16T01:43:25.656Z,96542.97
2023-04-16T01:45:54.985Z,96529.84
2023-04-16T01:48:23.053Z,96532.34
2023-04-16T01:50:50.916Z,96537.72
2023-04-16T01:53:20.129Z,96532.91
2023-04-16T01:55:47.946Z,96536.69
2023-04-16T01:58:15.909Z,96538.56
2023-04-16T02:00:44.064Z,96536.78
2023-04-16T02:03:12.234Z,96537.91
2023-04-16T02:05:40.287Z,96532.91
2023-04-16T02:08:08.255Z,96540.34
2023-04-16T02:10:37.913Z,96542.78
2023-04-16T02:13:06.084Z,96541.81
2023-04-16T02:15:36.920Z,96537.91
2023-04-16T02:18:04.907Z,96540.53
2023-04-16T02:20:33.763Z,96541.28
2023-04-16T02:23:01.810Z,96543.72
2023-04-16T02:25:30.086Z,96549.28
2023-04-16T02:28:00.487Z,96551.69
2023-04-16T02:30:36.665Z,96538.13
2023-04-16T02:33:07.270Z,96543.91
2023-04-16T02:35:36.490Z,96546.53
2023-04-16T02:38:05.386Z,96541.94
2023-04-16T02:40:33.500Z,96550.19
2023-04-16T02:43:02.669Z,96548.09
2023-04-16T02:45:31.636Z,96552.28
2023-04-16T02:48:00.617Z,96552.75
2023-04-16T02:50:28.565Z,96553.50
2023-04-16T02:52:56.453Z,96548.72
2023-04-16T02:55:24.381Z,96546.00
2023-04-16T02:57:52.935Z,96553.66
2023-04-16T03:00:22.683Z,96559.88
2023-04-16T03:02:50.819Z,96560.09
2023-04-16T03:05:19.008Z,96558.91
2023-04-16T03:07:47.794Z,96560.63
2023-04-16T03:10:16.730Z,96559.13
2023-04-16T03:12:44.574Z,96558.09
2023-04-16T03:15:12.756Z,96559.13
2023-04-16T03:17:42.026Z,96557.16
2023-04-16T03:20:11.262Z,96561.22
2023-04-16T03:22:39.534Z,96562.16
2023-04-16T03:25:08.264Z,96559.13
2023-04-16T03:27:36.522Z,96563.34
2023-04-16T03:30:05.619Z,96560.72
2023-04-16T03:32:36.124Z,96558.00
2023-04-16T03:35:08.857Z,96561.47
2023-04-16T03:37:38.220Z,96574.34
2023-04-16T03:40:07.373Z,96564.06
2023-04-16T03:42:35.723Z,96573.22
2023-04-16T03:45:04.117Z,96581.28
2023-04-16T03:47:33.032Z,96578.84
2023-04-16T03:50:04.028Z,96575.84
2023-04-16T03:52:33.250Z,96578.56
2023-04-16T03:55:01.078Z,96578.78
2023-04-16T03:57:31.695Z,96577.81
2023-04-16T04:00:06.876Z,96576.78
2023-04-16T04:02:54.586Z,96580.53
2023-04-16T04:05:24.062Z,96586.72
2023-04-16T04:07:54.481Z,96580.94
2023-04-16T04:10:22.408Z,96580.09
2023-04-16T04:12:50.401Z,96579.69
2023-04-16T04:15:18.575Z,96586.81
2023-04-16T04:17:46.491Z,96579.91
2023-04-16T04:20:14.626Z,96587.47
2023-04-16T04:22:45.554Z,96586.66
2023-04-16T04:25:15.207Z,96587.47
2023-04-16T04:27:44.174Z,96592.81
2023-04-16T04:30:13.134Z,96588.63
2023-04-16T04:32:42.378Z,96590.09
2023-04-16T04:35:11.075Z,96596.28
2023-04-16T04:37:38.996Z,96600.16
2023-04-16T04:40:16.007Z,96596.63
2023-04-16T04:42:44.336Z,96600.81
2023-04-16T04:45:12.646Z,96607.00
2023-04-16T04:47:42.097Z,96608.59
2023-04-16T04:50:10.867Z,96610.91
2023-04-16T04:52:39.181Z,96604.50
2023-04-16T04:55:09.120Z,96613.19
2023-04-16T04:57:38.393Z,96613.19
2023-04-16T05:00:08.228Z,96626.13
2023-04-16T05:02:44.745Z,96621.66
2023-04-16T05:05:12.695Z,96622.88
2023-04-16T05:07:40.554Z,96630.75
2023-04-16T05:10:09.965Z,96628.97
2023-04-16T05:12:40.006Z,96641.34
2023-04-16T05:15:08.913Z,96642.19
2023-04-16T05:17:36.778Z,96636.38
2023-04-16T05:20:05.114Z,96647.38
2023-04-16T05:22:32.957Z,96640.41
2023-04-16T05:25:00.816Z,96646.97
2023-04-16T05:27:28.731Z,96653.19
2023-04-16T05:29:57.933Z,96656.56
2023-04-16T05:32:27.867Z,96654.31
2023-04-16T05:34:55.890Z,96663.31
2023-04-16T05:37:23.768Z,96659.56
2023-04-16T05:39:51.586Z,96661.44
2023-04-16T05:42:19.419Z,96662.19
2023-04-16T05:44:47.222Z,96672.59
2023-04-16T05:47:17.392Z,96671.28
2023-04-16T05:49:45.405Z,96673.50
2023-04-16T05:52:13.444Z,96688.72
2023-04-16T05:54:41.305Z,96681.69
2023-04-16T05:57:09.152Z,96687.31
2023-04-16T05:59:37.008Z,96685.16
2023-04-16T06:02:04.944Z,96682.63
2023-04-16T06:04:35.689Z,96680.09
2023-04-16T06:07:03.554Z,96686.75
2023-04-16T06:09:31.600Z,96682.53
2023-04-16T06:11:59.469Z,96681.69
2023-04-16T06:14:27.317Z,96691.25
2023-04-16T06:16:55.191Z,96690.50
2023-04-16T06:19:23.024Z,96692.94
2023-04-16T06:21:52.378Z,96698.19
2023-04-16T06:24:20.766Z,96704.38
2023-04-16T06:26:48.593Z,96705.41
2023-04-16T06:29:16.551Z,96699.13
2023-04-16T06:31:44.590Z,96701.22
2023-04-16T06:34:12.507Z,96700.63
2023-04-16T06:36:40.374Z,96694.72
2023-04-16T06:39:09.942Z,96695.47
2023-04-16T06:41:40.294Z,96704.38
2023-04-16T06:44:08.176Z,96699.97
2023-04-16T06:46:36.340Z,96706.19
2023-04-16T06:49:04.440Z,96702.69
2023-04-16T06:51:32.578Z,96710.56
2023-04-16T06:54:00.832Z,96705.22
2023-04-16T06:56:30.023Z,96708.53
2023-04-16T06:58:58.974Z,96712.81
2023-04-16T07:01:27.002Z,96722.00
2023-04-16T07:03:55.666Z,96707.94
2023-04-16T07:06:23.720Z,96713.00
2023-04-16T07:08:51.625Z,96713.66
2023-04-16T07:11:20.873Z,96712.72
2023-04-16T07:13:51.112Z,96718.28
2023-04-16T07:16:19.115Z,96722.38
2023-04-16T07:18:47.284Z,96720.59
2023-04-16T07:21:15.123Z,96724.06
2023-04-16T07:23:43.088Z,96728.00
2023-04-16T07:26:11.663Z,96724.34
2023-04-16T07:28:39.831Z,96726.78
2023-04-16T07:31:09.379Z,96722.09
2023-04-16T07:33:37.268Z,96727.44
2023-04-16T07:36:05.561Z,96732.41
2023-04-16T07:38:34.685Z,96724.81
2023-04-16T07:41:02.769Z,96738.03
2023-04-16T07:43:30.700Z,96731.75
2023-04-16T07:45:59.516Z,96736.72
2023-04-16T07:48:28.828Z,96747.44
2023-04-16T07:50:56.871Z,96742.44
2023-04-16T07:53:24.629Z,96750.31
2023-04-16T07:55:52.493Z,96749.38
2023-04-16T07:58:20.499Z,96759.03
2023-04-16T08:00:50.383Z,96753.78
2023-04-16T08:03:19.070Z,96758.84
2023-04-16T08:05:48.342Z,96759.03
2023-04-16T08:08:16.106Z,96758.28
2023-04-16T08:10:44.056Z,96764.00
2023-04-16T08:13:11.882Z,96772.09
2023-04-16T08:15:39.858Z,96773.59
2023-04-16T08:18:12.751Z,96772.94
2023-04-16T08:20:40.709Z,96779.00
2023-04-16T08:23:09.938Z,96776.59
2023-04-16T08:25:37.770Z,96787.84
2023-04-16T08:28:06.089Z,96785.97
2023-04-16T08:30:34.703Z,96781.63
2023-04-16T08:33:02.930Z,96782.47
2023-04-16T08:35:30.955Z,96788.69
2023-04-16T08:38:02.200Z,96791.59
2023-04-16T08:40:33.654Z,96794.13
2023-04-16T08:43:03.909Z,96799.09
2023-04-16T08:45:36.008Z,96802.84
2023-04-16T08:48:06.746Z,96808.47
2023-04-16T08:50:34.966Z,96798.72
2023-04-16T08:53:06.185Z,96807.34
2023-04-16T08:55:38.537Z,96804.84
2023-04-16T08:58:10.804Z,96803.59
2023-04-16T09:00:39.016Z,96806.50
2023-04-16T09:03:07.510Z,96803.31
2023-04-16T09:05:36.142Z,96812.72
2023-04-16T09:08:04.028Z,96809.59
2023-04-16T09:10:32.321Z,96815.22
2023-04-16T09:13:01.783Z,96809.69
2023-04-16T09:15:30.201Z,96805.47
2023-04-16T09:17:58.562Z,96814.94
2023-04-16T09:20:26.407Z,96817.69
2023-04-16T09:22:54.265Z,96825.28
2023-04-16T09:25:23.500Z,96816.53
2023-04-16T09:27:51.945Z,96823.38
2023-04-16T09:30:23.157Z,96821.03
2023-04-16T09:32:51.792Z,96828.19
2023-04-16T09:35:20.414Z,96829.38
2023-04-16T09:37:56.979Z,96829.50
2023-04-16T09:40:30.578Z,96822.16
2023-04-16T09:43:00.718Z,96823.66
2023-04-16T09:45:33.971Z,96817.53
2023-04-16T09:48:05.857Z,96827.97
2023-04-16T09:50:34.321Z,96827.41
2023-04-16T09:53:04.613Z,96832.56
2023-04-16T09:55:33.972Z,96835.03
2023-04-16T09:58:03.001Z,96832.47
2023-04-16T10:00:32.828Z,96848.44
2023-04-16T10:03:07.929Z,96844.88
2023-04-16T10:05:36.578Z,96844.78
2023-04-16T10:08:05.401Z,96853.97
2023-04-16T10:10:33.694Z,96850.78
2023-04-16T10:13:02.599Z,96851.25
2023-04-16T10:15:30.656Z,96854.06
2023-04-16T10:18:00.387Z,96849.94
2023-04-16T10:20:28.757Z,96861.31
2023-04-16T10:22:57.691Z,96859.16
2023-04-16T10:25:26.219Z,96860.91
2023-04-16T10:27:54.158Z,96863.44
2023-04-16T10:30:22.816Z,96862.13
2023-04-16T10:32:51.419Z,96851.91
2023-04-16T10:35:21.971Z,96859.78
2023-04-16T10:37:51.552Z,96854.25
2023-04-16T10:40:27.021Z,96866.38
2023-04-16T10:42:56.694Z,96865.53
2023-04-16T10:45:31.198Z,96862.59
2023-04-16T10:47:59.152Z,96863.66
2023-04-16T10:50:35.669Z,96859.97
2023-04-16T10:53:19.873Z,96856.31
2023-04-16T10:56:13.495Z,96853.78
2023-04-16T10:58:41.545Z,96864.56
2023-04-16T11:01:13.663Z,96861.00
2023-04-16T11:03:47.750Z,96857.25
2023-04-16T11:06:19.077Z,96861.56
2023-04-16T11:08:54.445Z,96859.66
2023-04-16T11:11:23.308Z,96863.22
2023-04-16T11:13:51.237Z,96860.22
2023-04-16T11:16:19.097Z,96866.22
2023-04-16T11:18:51.506Z,96866.44
2023-04-16T11:21:21.516Z,96863.41
2023-04-16T11:23:50.633Z,96865.53
2023-04-16T11:26:26.330Z,96873.75
2023-04-16T11:28:55.536Z,96856.81
2023-04-16T11:31:24.384Z,96860.19
2023-04-16T11:33:52.302Z,96871.13
2023-04-16T11:36:21.486Z,96864.53
2023-04-16T11:38:49.365Z,96864.31
2023-04-16T11:41:23.464Z,96867.69
2023-04-16T11:43:51.479Z,96866.91
2023-04-16T11:46:27.459Z,96871.50
2023-04-16T11:48:56.650Z,96865.69
2023-04-16T11:51:25.946Z,96865.00
2023-04-16T11:53:54.698Z,96864.44
2023-04-16T11:56:29.410Z,96869.28
2023-04-16T11:59:11.492Z,96864.66
2023-04-16T12:01:41.246Z,96875.19
2023-04-16T12:04:09.989Z,96869.53
2023-04-16T12:06:39.635Z,96872.88
2023-04-16T12:09:31.658Z,96870.44
2023-04-16T12:11:59.481Z,96871.66
2023-04-16T12:14:27.393Z,96880.69
2023-04-16T12:16:55.397Z,96869.78
2023-04-16T12:19:23.316Z,96878.59
2023-04-16T12:21:54.621Z,96884.06
2023-04-16T12:24:23.984Z,96876.38
2023-04-16T12:26:58.022Z,96886.34
2023-04-16T12:29:27.945Z,96880.69
2023-04-16T12:31:55.765Z,96886.34
2023-04-16T12:34:27.707Z,96885.34
2023-04-16T12:37:13.592Z,96885.72
2023-04-16T12:39:42.204Z,96894.16
2023-04-16T12:42:11.390Z,96894.25
2023-04-16T12:44:39.355Z,96895.75
2023-04-16T12:47:07.223Z,96894.16
2023-04-16T12:49:35.085Z,96888.34
2023-04-16T12:52:03.507Z,96895.59
2023-04-16T12:54:33.355Z,96897.75
2023-04-16T12:57:01.272Z,96884.28
2023-04-16T12:59:29.052Z,96895.00
2023-04-16T13:01:57.017Z,96892.78
2023-04-16T13:04:25.956Z,96887.16
2023-04-16T13:06:54.071Z,96884.72
2023-04-16T13:09:22.028Z,96887.34
2023-04-16T13:11:51.404Z,96887.69
2023-04-16T13:14:19.314Z,96884.22
2023-04-16T13:16:47.168Z,96882.34
2023-04-16T13:19:15.888Z,96890.31
2023-04-16T13:21:43.866Z,96882.09
2023-04-16T13:24:11.816Z,96883.31
2023-04-16T13:26:39.633Z,96887.41
2023-04-16T13:29:09.106Z,96879.41
2023-04-16T13:31:37.331Z,96884.69
2023-04-16T13:34:05.707Z,96882.56
2023-04-16T13:36:34.085Z,96884.97
2023-04-16T13:39:04.602Z,96886.78
2023-04-16T13:41:32.553Z,96883.97
2023-04-16T13:44:00.380Z,96903.41
2023-04-16T13:46:30.263Z,96897.38
2023-04-16T13:48:58.166Z,96895.72
2023-04-16T13:51:27.439Z,96890.09
2023-04-16T13:53:55.688Z,96899.19
2023-04-16T13:56:23.670Z,96889.59
2023-04-16T13:58:52.211Z,96894.66
2023-04-16T14:01:20.188Z,96893.06
2023-04-16T14:03:50.194Z,96897.50
2023-04-16T14:06:18.503Z,96888.09
2023-04-16T14:08:46.516Z,96884.72
2023-04-16T14:11:14.450Z,96890.53
2023-04-16T14:13:42.951Z,96891.19
2023-04-16T14:16:10.816Z,96895.59
2023-04-16T14:18:42.171Z,96894.66
2023-04-16T14:21:11.328Z,96893.91
2023-04-16T14:23:39.353Z,96891.38
2023-04-16T14:26:07.156Z,96887.91
2023-04-16T14:28:35.550Z,96892.25
2023-04-16T14:31:03.421Z,96889.59
2023-04-16T14:33:32.329Z,96886.97
2023-04-16T14:36:02.783Z,96896.53
2023-04-16T14:38:32.780Z,96894.59
2023-04-16T14:41:01.234Z,96887.56
2023-04-16T14:43:29.468Z,96884.81
2023-04-16T14:45:58.664Z,96889.69
2023-04-16T14:48:26.617Z,96885.84
2023-04-16T14:50:54.970Z,96887.13
2023-04-16T14:53:24.752Z,96896.38
2023-04-16T14:55:54.355Z,96884.94
2023-04-16T14:58:22.699Z,96899.09
2023-04-16T15:00:50.576Z,96902.78
2023-04-16T15:03:18.738Z,96890.19
2023-04-16T15:05:50.778Z,96889.53
2023-04-16T15:08:18.758Z,96892.91
2023-04-16T15:10:46.621Z,96896.97
2023-04-16T15:13:16.028Z,96907.13
2023-04-16T15:15:44.531Z,96900.16
2023-04-16T15:18:12.412Z,96902.16
2023-04-16T15:20:40.659Z,96899.72
2023-04-16T15:23:08.520Z,96908.34
2023-04-16T15:25:36.563Z,96905.91
2023-04-16T15:28:04.600Z,96900.56
2023-04-16T15:30:34.023Z,96904.03
2023-04-16T15:33:02.045Z,96905.28
2023-04-16T15:35:29.893Z,96903.47
2023-04-16T15:37:57.710Z,96908.25
2023-04-16T15:40:25.907Z,96915.31
2023-04-16T15:42:53.755Z,96911.84
2023-04-16T15:45:21.898Z,96915.81
2023-04-16T15:47:51.603Z,96909.38
2023-04-16T15:50:20.129Z,96912.88
2023-04-16T15:52:48.691Z,96909.09
2023-04-16T15:55:17.978Z,96911.53
2023-04-16T15:57:47.805Z,96911.53
2023-04-16T16:00:17.245Z,96907.97
2023-04-16T16:02:46.474Z,96908.16
2023-04-16T16:05:16.819Z,96914.25
2023-04-16T16:07:45.005Z,96906.28
2023-04-16T16:10:13.984Z,96911.63
2023-04-16T16:12:41.842Z,96914.06
2023-04-16T16:15:11.140Z,96915.75
2023-04-16T16:17:39.298Z,96919.31
2023-04-16T16:20:10.424Z,96918.28
2023-04-16T16:22:40.632Z,96913.88
2023-04-16T16:25:10.172Z,96917.22
2023-04-16T16:27:38.096Z,96913.88
2023-04-16T16:30:07.537Z,96916.69
2023-04-16T16:32:35.951Z,96925.13
2023-04-16T16:35:04.303Z,96921.78
2023-04-16T16:37:32.270Z,96923.44
2023-04-16T16:40:01.402Z,96924.41
2023-04-16T16:42:29.410Z,96925.75
2023-04-16T16:44:57.603Z,96926.91
2023-04-16T16:47:25.719Z,96928.91
2023-04-16T16:49:54.661Z,96924.28
2023-04-16T16:52:24.653Z,96931.56
2023-04-16T16:54:52.512Z,96931.94
2023-04-16T16:57:21.773Z,96938.78
2023-04-16T16:59:50.392Z,96926.38
2023-04-16T17:02:18.308Z,96933.81
2023-04-16T17:04:46.297Z,96931.72
2023-04-16T17:07:19.225Z,96928.16
2023-04-16T17:09:47.080Z,96930.88
2023-04-16T17:12:14.899Z,96928.25
2023-04-16T17:14:44.093Z,96936.56
2023-04-16T17:17:11.963Z,96927.72
2023-04-16T17:19:39.983Z,96937.19
2023-04-16T17:22:08.478Z,96937.09
2023-04-16T17:24:36.481Z,96936.56
2023-04-16T17:27:04.750Z,96932.69
2023-04-16T17:29:32.623Z,96930.25
2023-04-16T17:32:01.922Z,96934.56
2023-04-16T17:34:29.850Z,96942.53
2023-04-16T17:36:57.664Z,96937.19
2023-04-16T17:39:25.484Z,96940.13
2023-04-16T17:41:54.787Z,96939.91
2023-04-16T17:44:25.587Z,96945.28
2023-04-16T17:46:53.395Z,96937.41
2023-04-16T17:49:22.789Z,96940.78
2023-04-16T17:51:50.589Z,96949.03
2023-04-16T17:54:18.409Z,96948.84
2023-04-16T17:56:46.529Z,96954.03
2023-04-16T17:59:14.387Z,96955.06
2023-04-16T18:01:42.406Z,96955.97
2023-04-16T18:04:10.863Z,96960.53
2023-04-16T18:06:40.481Z,96959.28
2023-04-16T18:09:08.354Z,96960.13
2023-04-16T18:11:36.266Z,96958.31
2023-04-16T18:14:04.090Z,96964.34
2023-04-16T18:16:32.277Z,96963.88
2023-04-16T18:19:00.120Z,96960.31
2023-04-16T18:21:29.796Z,96963.78
2023-04-16T18:24:00.861Z,96969.13
2023-04-16T18:26:29.997Z,96970.84
2023-04-16T18:28:57.939Z,96974.97
2023-04-16T18:31:26.812Z,96975.06
2023-04-16T18:33:58.049Z,96973.09
2023-04-16T18:36:27.235Z,96977.22
2023-04-16T18:41:28.206Z,96975.91
2023-04-16T18:43:56.176Z,96984.56
2023-04-16T18:46:24.121Z,96983.81
2023-04-16T18:48:52.053Z,96981.16
2023-04-16T18:51:19.982Z,96979.50
2023-04-16T18:53:47.904Z,96983.72
2023-04-16T18:56:15.680Z,96984.75
2023-04-16T18:58:44.878Z,96990.19
2023-04-16T19:01:13.958Z,96989.81
2023-04-16T19:03:42.043Z,97000.34
2023-04-16T19:06:10.732Z,96997.63
2023-04-16T19:08:38.675Z,97002.06
2023-04-16T19:11:06.656Z,97004.97
2023-04-16T19:13:34.539Z,97003.25
2023-04-16T19:16:06.004Z,97005.59
2023-04-16T19:18:34.088Z,97008.25
2023-04-16T19:21:02.152Z,97007.31
2023-04-16T19:23:30.123Z,97005.97
2023-04-16T19:25:58.003Z,97009.34
2023-04-16T19:28:25.994Z,97007.31
2023-04-16T19:30:54.269Z,97005.41
2023-04-16T19:33:23.574Z,97013.22
2023-04-16T19:35:51.417Z,97018.56
2023-04-16T19:38:19.351Z,97007.31
2023-04-16T19:40:49.285Z,97012.47
2023-04-16T19:43:17.144Z,97023.09
2023-04-16T19:45:45.102Z,97015.94
2023-04-16T19:48:13.279Z,97013.22
2023-04-16T19:50:43.513Z,97013.50
2023-04-16T19:53:11.844Z,97018.56
2023-04-16T19:55:40.576Z,97014.25
2023-04-16T19:58:08.470Z,97024.03
2023-04-16T20:00:38.460Z,97015.22
2023-04-16T20:03:06.615Z,97021.31
2023-04-16T20:05:34.457Z,97019.50
2023-04-16T20:08:03.698Z,97015.38
2023-04-16T20:10:31.948Z,97022.50
2023-04-16T20:12:59.817Z,97021.38
2023-04-16T20:15:27.746Z,97030.13
2023-04-16T20:17:56.107Z,97023.09
2023-04-16T20:20:24.175Z,97023.94
2023-04-16T20:22:52.044Z,97022.34
2023-04-16T20:25:21.628Z,97027.50
2023-04-16T20:27:49.416Z,97023.09
2023-04-16T20:30:17.376Z,97023.09
2023-04-16T20:32:45.353Z,97018.75
2023-04-16T20:35:13.164Z,97028.38
2023-04-16T20:37:43.148Z,97022.44
2023-04-16T20:40:13.845Z,97019.59
2023-04-16T20:42:46.290Z,97015.50
2023-04-16T20:45:14.433Z,97024.03
2023-04-16T20:47:44.535Z,97020.75
2023-04-16T20:50:12.632Z,97025.06
2023-04-16T20:52:42.238Z,97018.22
2023-04-16T20:55:10.857Z,97019.81
2023-04-16T20:57:39.180Z,97012.75
2023-04-16T21:00:12.070Z,97016.31
2023-04-16T21:02:40.158Z,97019.13
2023-04-16T21:05:10.469Z,97013.88
2023-04-16T21:07:38.311Z,97008.59
2023-04-16T21:10:07.079Z,97008.72
2023-04-16T21:12:34.839Z,97007.75
2023-04-16T21:15:02.954Z,97006.38
2023-04-16T21:17:32.931Z,97007.88
2023-04-16T21:20:01.947Z,97007.88
2023-04-16T21:22:29.731Z,97009.56
2023-04-16T21:24:57.588Z,97009.00
2023-04-16T21:27:25.421Z,97002.03
2023-04-16T21:29:53.177Z,97011.63
2023-04-16T21:32:21.010Z,97011.63
2023-04-16T21:34:50.156Z,97009.09
2023-04-16T21:37:18.095Z,97007.50
2023-04-16T21:39:46.155Z,97010.97
2023-04-16T21:42:13.961Z,97004.88
2023-04-16T21:44:41.839Z,97007.22
2023-04-16T21:47:09.701Z,97012.66
2023-04-16T21:49:37.482Z,97007.56
2023-04-16T21:52:13.998Z,97010.78
2023-04-16T21:54:42.113Z,97010.88
2023-04-16T21:57:10.011Z,97005.81
2023-04-16T21:59:37.982Z,97012.75
2023-04-16T22:02:06.017Z,97006.47
2023-04-16T22:04:38.547Z,97003.75
2023-04-16T22:07:09.707Z,97011.72
2023-04-16T22:09:37.647Z,97004.94
2023-04-16T22:12:06.839Z,97006.56
2023-04-16T22:14:35.901Z,97003.19
2023-04-16T22:17:04.389Z,97002.31
2023-04-16T22:19:32.363Z,97002.91
2023-04-16T22:22:00.285Z,97006.56
2023-04-16T22:24:29.497Z,97001.19
2023-04-16T22:26:57.947Z,97004.09
2023-04-16T22:29:25.887Z,96997.25
2023-04-16T22:31:55.035Z,96996.41
2023-04-16T22:34:22.923Z,97001.31
2023-04-16T22:36:50.760Z,96998.75
2023-04-16T22:39:18.796Z,97001.94
2023-04-16T22:41:48.058Z,97000.00
2023-04-16T22:44:15.984Z,96995.19
2023-04-16T22:46:45.097Z,96997.72
2023-04-16T22:49:13.137Z,96999.50
2023-04-16T22:51:41.313Z,96999.41
2023-04-16T22:54:13.655Z,96992.47
2023-04-16T22:56:41.912Z,96999.41
2023-04-16T22:59:11.313Z,96996.78
2023-04-16T23:01:39.329Z,96996.88
2023-04-16T23:04:07.171Z,96997.94
2023-04-16T23:06:35.013Z,96998.69
2023-04-16T23:09:03.420Z,96999.41
2023-04-16T23:11:31.213Z,96995.28
2023-04-16T23:13:59.018Z,96993.50
2023-04-16T23:16:28.754Z,96998.00
2023-04-16T23:18:56.704Z,96997.06
2023-04-16T23:21:24.613Z,96996.22
2023-04-16T23:23:52.775Z,96993.50
2023-04-16T23:26:20.736Z,96993.69
2023-04-16T23:28:48.511Z,96995.19
2023-04-16T23:31:16.418Z,96992.66
2023-04-16T23:33:45.668Z,96996.03
2023-04-16T23:36:13.525Z,96988.44
2023-04-16T23:38:41.353Z,96987.47
2023-04-16T23:41:09.257Z,96994.53
2023-04-16T23:43:39.970Z,96996.31
2023-04-16T23:46:08.222Z,96989.91
2023-04-16T23:48:36.192Z,96981.38
2023-04-16T23:51:05.736Z,96985.22
2023-04-16T23:53:33.581Z,96987.56
2023-04-16T23:56:01.560Z,96992.81
2023-04-16T23:58:29.455Z,96980.34
